createdAt,value
2022-09-13T00:01:11.469Z,92.0
2022-09-13T00:06:17.590Z,92.0
2022-09-13T00:11:23.804Z,92.0
2022-09-13T00:16:30.073Z,92.0
2022-09-13T00:21:36.214Z,92.0
2022-09-13T00:26:42.425Z,92.0
2022-09-13T00:31:48.760Z,92.0
2022-09-13T00:36:54.844Z,92.0
2022-09-13T00:42:00.080Z,92.0
2022-09-13T00:47:06.288Z,92.0
2022-09-13T00:52:11.523Z,92.0
2022-09-13T00:57:17.731Z,92.0
2022-09-13T01:02:23.048Z,92.0
2022-09-13T01:07:29.180Z,91.5
2022-09-13T01:12:35.381Z,91.5
2022-09-13T01:17:41.590Z,91.5
2022-09-13T01:22:47.799Z,91.5
2022-09-13T01:27:54.008Z,91.5
2022-09-13T01:33:00.213Z,91.0
2022-09-13T01:38:06.428Z,91.0
2022-09-13T01:43:12.634Z,91.0
2022-09-13T01:48:18.840Z,91.0
2022-09-13T01:53:25.050Z,90.5
2022-09-13T01:58:31.260Z,90.5
2022-09-13T02:03:37.519Z,90.5
2022-09-13T02:08:43.670Z,90.5
2022-09-13T02:13:49.961Z,90.5
2022-09-13T02:18:56.092Z,90.5
2022-09-13T02:24:02.301Z,90.5
2022-09-13T02:29:08.510Z,90.5
2022-09-13T02:34:14.721Z,90.5
2022-09-13T02:39:20.926Z,90.5
2022-09-13T02:44:27.133Z,90.5
2022-09-13T02:49:32.368Z,90.5
2022-09-13T02:54:38.582Z,90.5
2022-09-13T02:59:43.814Z,90.5
2022-09-13T03:04:50.025Z,90.5
2022-09-13T03:09:56.227Z,90.5
2022-09-13T03:15:02.439Z,90.5
2022-09-13T03:20:08.654Z,91.0
2022-09-13T03:25:14.854Z,91.0
2022-09-13T03:30:21.063Z,91.0
2022-09-13T03:35:27.274Z,91.0
2022-09-13T03:40:33.496Z,91.0
2022-09-13T03:45:39.701Z,91.5
2022-09-13T03:50:45.903Z,91.5
2022-09-13T03:55:52.107Z,91.5
2022-09-13T04:00:58.333Z,91.5
2022-09-13T04:06:04.526Z,91.5
2022-09-13T04:11:10.731Z,91.5
2022-09-13T04:16:17.005Z,91.5
2022-09-13T04:21:23.150Z,91.5
2022-09-13T04:26:29.357Z,91.5
2022-09-13T04:31:35.591Z,91.5
2022-09-13T04:36:41.774Z,91.5
2022-09-13T04:41:47.979Z,92.0
2022-09-13T04:46:53.218Z,92.0
2022-09-13T04:51:59.428Z,92.0
2022-09-13T04:57:04.661Z,92.0
2022-09-13T05:02:10.936Z,92.0
2022-09-13T05:07:17.081Z,92.5
2022-09-13T05:12:23.282Z,92.5
2022-09-13T05:17:29.498Z,92.5
2022-09-13T05:22:35.717Z,92.5
2022-09-13T05:27:41.911Z,92.5
2022-09-13T05:32:48.122Z,92.5
2022-09-13T05:37:54.330Z,92.5
2022-09-13T05:43:00.541Z,92.5
2022-09-13T05:48:06.748Z,93.0
2022-09-13T05:53:12.967Z,93.0
2022-09-13T05:58:19.167Z,93.0
2022-09-13T06:03:25.370Z,93.0
2022-09-13T06:08:31.578Z,93.0
2022-09-13T06:13:37.790Z,93.0
2022-09-13T06:18:43.996Z,93.0
2022-09-13T06:23:50.203Z,93.0
2022-09-13T06:28:56.413Z,93.0
2022-09-13T06:34:02.630Z,93.0
2022-09-13T06:39:08.826Z,93.0
2022-09-13T06:44:14.064Z,93.0
2022-09-13T06:49:20.275Z,93.0
2022-09-13T06:54:25.511Z,93.0
2022-09-13T06:59:31.724Z,93.0
2022-09-13T07:04:37.932Z,93.0
2022-09-13T07:09:44.137Z,93.0
2022-09-13T07:14:50.347Z,93.0
2022-09-13T07:19:56.552Z,92.0
2022-09-13T07:25:02.768Z,92.0
2022-09-13T07:30:08.970Z,91.5
2022-09-13T07:35:15.181Z,91.5
2022-09-13T07:40:21.480Z,91.0
2022-09-13T07:45:27.598Z,90.5
2022-09-13T07:50:33.807Z,90.5
2022-09-13T07:55:40.025Z,90.5
2022-09-13T08:00:46.224Z,90.0
2022-09-13T08:05:52.432Z,89.5
2022-09-13T08:10:58.646Z,89.0
2022-09-13T08:16:04.968Z,88.0
2022-09-13T08:21:11.061Z,88.0
2022-09-13T08:26:17.272Z,88.0
2022-09-13T08:31:23.540Z,87.5
2022-09-13T08:36:29.690Z,87.5
2022-09-13T08:41:34.926Z,87.0
2022-09-13T08:46:41.142Z,87.0
2022-09-13T08:51:47.347Z,86.5
2022-09-13T08:56:52.581Z,86.0
2022-09-13T09:01:58.794Z,86.0
2022-09-13T09:07:05.005Z,86.0
2022-09-13T09:12:11.213Z,85.5
2022-09-13T09:17:17.424Z,85.0
2022-09-13T09:22:23.626Z,85.0
2022-09-13T09:27:29.837Z,85.0
2022-09-13T09:32:36.064Z,85.0
2022-09-13T09:37:42.262Z,84.5
2022-09-13T09:42:48.467Z,84.5
2022-09-13T09:47:54.676Z,84.5
2022-09-13T09:53:00.885Z,84.5
2022-09-13T09:58:07.096Z,84.0
2022-09-13T10:03:13.303Z,84.0
2022-09-13T10:08:19.515Z,83.5
2022-09-13T10:13:29.700Z,83.5
2022-09-13T10:23:38.141Z,83.0
2022-09-13T10:28:44.349Z,83.5
2022-09-13T10:33:50.560Z,83.5
2022-09-13T10:38:56.764Z,83.5
2022-09-13T10:44:04.522Z,83.0
2022-09-13T10:49:08.210Z,82.5
2022-09-13T10:54:14.423Z,82.5
2022-09-13T10:59:19.672Z,82.0
2022-09-13T11:04:25.952Z,81.5
2022-09-13T11:09:32.084Z,80.5
2022-09-13T11:14:38.292Z,81.0
2022-09-13T11:19:44.504Z,81.0
2022-09-13T11:24:50.715Z,81.0
2022-09-13T11:29:56.921Z,81.0
2022-09-13T11:35:03.134Z,81.0
2022-09-13T11:40:09.407Z,81.0
2022-09-13T11:45:19.458Z,81.5
2022-09-13T11:50:21.764Z,81.5
2022-09-13T11:55:27.972Z,81.5
2022-09-13T12:00:34.188Z,81.5
2022-09-13T12:05:40.393Z,81.5
2022-09-13T12:10:46.614Z,81.5
2022-09-13T12:15:52.818Z,81.0
2022-09-13T12:20:59.027Z,81.5
2022-09-13T12:26:05.237Z,81.5
2022-09-13T12:31:11.449Z,81.0
2022-09-13T12:36:17.658Z,81.0
2022-09-13T12:41:23.869Z,81.0
2022-09-13T12:46:29.110Z,81.0
2022-09-13T12:51:35.316Z,81.0
2022-09-13T12:56:40.555Z,81.0
2022-09-13T13:01:46.930Z,81.0
2022-09-13T13:06:52.976Z,80.5
2022-09-13T13:11:59.189Z,80.5
2022-09-13T13:17:05.397Z,80.0
2022-09-13T13:22:11.608Z,80.0
2022-09-13T13:27:17.842Z,79.5
2022-09-13T13:32:24.025Z,79.5
2022-09-13T13:37:30.239Z,79.5
2022-09-13T13:42:36.463Z,79.0
2022-09-13T13:47:42.676Z,79.0
2022-09-13T13:52:48.890Z,78.5
2022-09-13T13:57:55.089Z,78.0
2022-09-13T14:03:01.304Z,78.5
2022-09-13T14:13:13.735Z,78.0
2022-09-13T14:18:19.950Z,78.0
2022-09-13T14:23:26.177Z,78.0
2022-09-13T14:28:32.381Z,77.5
2022-09-13T14:33:38.591Z,77.5
2022-09-13T14:38:43.823Z,77.5
2022-09-13T14:43:49.071Z,77.0
2022-09-13T14:48:55.283Z,76.5
2022-09-13T14:54:00.533Z,76.5
2022-09-13T14:59:06.737Z,76.5
2022-09-13T15:04:13.022Z,76.5
2022-09-13T15:09:19.156Z,77.0
2022-09-13T15:14:25.370Z,77.0
2022-09-13T15:19:31.596Z,77.0
2022-09-13T15:24:37.796Z,77.0
2022-09-13T15:29:44.014Z,77.5
2022-09-13T15:34:50.223Z,77.5
2022-09-13T15:39:56.463Z,77.5
2022-09-13T15:45:02.641Z,78.0
2022-09-13T15:50:08.855Z,78.5
2022-09-13T15:55:15.085Z,79.0
2022-09-13T16:00:21.273Z,79.0
2022-09-13T16:05:27.491Z,79.5
2022-09-13T16:10:33.691Z,79.5
2022-09-13T16:15:39.906Z,79.5
2022-09-13T16:20:46.113Z,79.5
2022-09-13T16:25:52.322Z,80.0
2022-09-13T16:30:58.579Z,80.0
2022-09-13T16:36:04.743Z,80.5
2022-09-13T16:41:09.980Z,80.5
2022-09-13T16:46:16.271Z,80.5
2022-09-13T16:51:21.422Z,81.0
2022-09-13T16:56:27.629Z,81.0
2022-09-13T17:06:40.054Z,81.0
2022-09-13T17:11:46.259Z,81.0
2022-09-13T17:16:52.470Z,81.0
2022-09-13T17:21:58.681Z,81.5
2022-09-13T17:27:04.890Z,81.5
2022-09-13T17:32:11.094Z,81.5
2022-09-13T17:37:17.306Z,82.0
2022-09-13T17:42:23.772Z,82.0
2022-09-13T17:47:29.727Z,82.0
2022-09-13T17:52:35.928Z,81.5
2022-09-13T17:57:42.142Z,82.0
2022-09-13T18:02:48.429Z,82.0
2022-09-13T18:07:54.554Z,82.0
2022-09-13T18:13:00.768Z,82.0
2022-09-13T18:18:06.975Z,82.0
2022-09-13T18:23:13.185Z,81.5
2022-09-13T18:28:19.395Z,81.5
2022-09-13T18:33:25.597Z,81.5
2022-09-13T18:38:31.811Z,81.5
2022-09-13T18:43:37.066Z,81.5
2022-09-13T18:48:43.294Z,81.5
2022-09-13T18:53:49.635Z,81.5
2022-09-13T18:58:54.710Z,81.5
2022-09-13T19:04:00.910Z,81.0
2022-09-13T19:09:07.119Z,81.0
2022-09-13T19:14:13.323Z,81.0
2022-09-13T19:19:19.535Z,80.5
2022-09-13T19:24:26.071Z,80.5
2022-09-13T19:29:31.947Z,80.5
2022-09-13T19:34:38.171Z,80.5
2022-09-13T19:39:44.458Z,80.5
2022-09-13T19:44:50.575Z,81.0
2022-09-13T19:49:56.784Z,81.0
2022-09-13T19:55:02.988Z,81.0
2022-09-13T20:00:09.210Z,81.0
2022-09-13T20:05:15.452Z,81.0
2022-09-13T20:10:21.614Z,81.0
2022-09-13T20:15:27.828Z,81.0
2022-09-13T20:20:34.031Z,81.0
2022-09-13T20:25:40.241Z,81.0
2022-09-13T20:30:46.500Z,81.0
2022-09-13T20:35:52.668Z,81.0
2022-09-13T20:40:58.868Z,81.0
2022-09-13T20:46:04.126Z,81.0
2022-09-13T20:51:10.310Z,81.5
2022-09-13T20:56:15.547Z,81.5
2022-09-13T21:01:21.837Z,81.5
2022-09-13T21:06:27.976Z,81.5
2022-09-13T21:11:34.172Z,81.5
2022-09-13T21:16:40.442Z,82.0
2022-09-13T21:21:46.587Z,82.5
2022-09-13T21:26:52.794Z,82.5
2022-09-13T21:31:59.010Z,83.0
2022-09-13T21:37:05.215Z,83.0
2022-09-13T21:42:11.419Z,83.0
2022-09-13T21:47:17.629Z,83.5
2022-09-13T21:52:23.841Z,83.5
2022-09-13T21:57:30.055Z,84.0
2022-09-13T22:02:36.330Z,84.0
2022-09-13T22:07:42.467Z,84.5
2022-09-13T22:12:48.690Z,84.5
2022-09-13T22:17:54.876Z,84.5
2022-09-13T22:23:01.085Z,84.5
2022-09-13T22:28:07.295Z,85.0
2022-09-13T22:33:13.501Z,85.0
2022-09-13T22:38:19.715Z,85.0
2022-09-13T22:43:24.955Z,85.0
2022-09-13T22:48:31.168Z,85.0
2022-09-13T22:53:37.369Z,85.0
2022-09-13T22:58:43.587Z,85.0
2022-09-13T23:03:50.088Z,85.0
2022-09-13T23:08:55.993Z,85.0
2022-09-13T23:14:02.208Z,85.0
2022-09-13T23:19:08.422Z,85.0
2022-09-13T23:24:14.621Z,85.0
2022-09-13T23:29:20.837Z,85.0
2022-09-13T23:34:27.041Z,85.0
2022-09-13T23:39:33.251Z,85.0
2022-09-13T23:44:39.459Z,85.0
2022-09-13T23:49:45.668Z,85.0
2022-09-13T23:54:51.872Z,85.0
2022-09-13T23:59:58.080Z,85.0
